Forside
METAR-TAF:

METAR-TAF

Lufthavne :

Rogers Municipal Airport-Carter Field

Rogers, Arkansas, USA

Breddekreds: 36-22N, længdekreds: 094-06W, højde: 415 m

Aktuelle vejr

Denne rapport blev lavet for 57 minutter siden, kl. 21:58 UTC
Vind 7 kt fra øst
Temperatur 18°C
Fugtighed 28%
Tryk 1018 hPa
Sigt: 16.1 km
skyfri

METAR: KROG 162158Z 10007KT 10SM CLR 18/M01 A3005 RMK AO2 SLP173 T01781006

Tid: 16:55 (22:55 UTC)

Vejrudsigter

Denne rapport blev lavet for 5 timer og 35 minutter siden, kl. 17:20 UTC
Foreløbig gælder fra 16 på 18 UTC til 17 på 18 UTC
Vind 5 kt fra østsydøst
Sigt: 10 km
skyfri
Fra 17 på 0100 UTC
Vind 6 kt fra sydsydøst
Sigt: 10 km
Spredte skyer i en højde af 25000 ft

TAF: KROG 161720Z 1618/1718 11005KT P6SM SKC FM170100 16006KT P6SM SCT250

Vejrobservationer og prognoser fra mere end 4000 lufthavne (METAR og TAF).

De gule og røde prikker repræsenterer de meteorologiske stationer.

Flyt musen over at se navnet på stationen.

Så klik over at se vejr observationer og prognoser.

At skifte det kort: Klik på de grønne knapper med et sort kors for at zoome ind; på den grønne knap med en bindestreg for at zoome ud; eller på de grønne pile for tilstødende kort.


METAR-TAF: